Terminal Aerodrome Forecast
Issued by NWS

Home | Current Version | Previous Version | Text Only | Print | Product List | Glossary On
Versions: 1 2 3 4 5 6 7 8 9 10 11 12 13 14 15 16 17 18 19 20
435
FTUS46 KMTR 122320
TAFSTS
TAF
KSTS 122320Z 1300/1324 VRB02KT P6SM FEW250
     FM130700 00000KT 3SM BR SKC
     FM130900 00000KT 1/2SM FG VV002
     FM131500 00000KT P6SM SKC=

USA.gov is the U.S. government's official web portal to all federal, state and local government web resources and services.